sensor_id;sensor_type;location;lat;lon;timestamp;pressure;altitude;pressure_sealevel;temperature;humidity
37610;BME280;23457;51.966;8.230;2023-05-23T00:00:11;100813.53;;;16.12;100.00
37610;BME280;23457;51.966;8.230;2023-05-23T00:02:41;100811.78;;;16.12;100.00
37610;BME280;23457;51.966;8.230;2023-05-23T00:05:08;100809.22;;;16.03;100.00
37610;BME280;23457;51.966;8.230;2023-05-23T00:07:35;100804.78;;;16.11;100.00
37610;BME280;23457;51.966;8.230;2023-05-23T00:10:03;100809.16;;;16.09;100.00
37610;BME280;23457;51.966;8.230;2023-05-23T00:12:29;100800.47;;;16.07;100.00
37610;BME280;23457;51.966;8.230;2023-05-23T00:14:56;100806.53;;;16.09;100.00
37610;BME280;23457;51.966;8.230;2023-05-23T00:17:23;100807.41;;;16.16;100.00
37610;BME280;23457;51.966;8.230;2023-05-23T00:19:51;100807.41;;;16.15;100.00
37610;BME280;23457;51.966;8.230;2023-05-23T00:22:18;100806.53;;;16.12;100.00
37610;BME280;23457;51.966;8.230;2023-05-23T00:24:45;100808.28;;;16.10;100.00
37610;BME280;23457;51.966;8.230;2023-05-23T00:27:11;100815.28;;;16.08;100.00
37610;BME280;23457;51.966;8.230;2023-05-23T00:29:38;100804.91;;;15.92;100.00
37610;BME280;23457;51.966;8.230;2023-05-23T00:32:05;100807.47;;;15.98;100.00
37610;BME280;23457;51.966;8.230;2023-05-23T00:34:31;100811.78;;;16.12;100.00
37610;BME280;23457;51.966;8.230;2023-05-23T00:36:58;100811.84;;;15.97;100.00
37610;BME280;23457;51.966;8.230;2023-05-23T00:39:25;100814.50;;;15.94;100.00
37610;BME280;23457;51.966;8.230;2023-05-23T00:41:51;100812.72;;;15.99;100.00
37610;BME280;23457;51.966;8.230;2023-05-23T00:44:19;100822.31;;;16.00;100.00
37610;BME280;23457;51.966;8.230;2023-05-23T00:46:51;100820.63;;;15.92;100.00
37610;BME280;23457;51.966;8.230;2023-05-23T00:49:19;100818.81;;;16.01;100.00
37610;BME280;23457;51.966;8.230;2023-05-23T00:51:46;100817.13;;;15.90;100.00
37610;BME280;23457;51.966;8.230;2023-05-23T00:54:17;100828.53;;;15.78;100.00
37610;BME280;23457;51.966;8.230;2023-05-23T00:56:46;100827.69;;;15.67;100.00
37610;BME280;23457;51.966;8.230;2023-05-23T00:59:14;100830.28;;;15.79;100.00
37610;BME280;23457;51.966;8.230;2023-05-23T01:01:41;100836.44;;;15.63;100.00
37610;BME280;23457;51.966;8.230;2023-05-23T01:04:13;100832.91;;;15.82;100.00
37610;BME280;23457;51.966;8.230;2023-05-23T01:06:42;100840.75;;;15.79;100.00
37610;BME280;23457;51.966;8.230;2023-05-23T01:09:14;100844.25;;;15.78;100.00
37610;BME280;23457;51.966;8.230;2023-05-23T01:11:45;100847.75;;;15.71;100.00
37610;BME280;23457;51.966;8.230;2023-05-23T01:14:41;100843.38;;;15.73;100.00
37610;BME280;23457;51.966;8.230;2023-05-23T01:17:16;100843.41;;;15.61;100.00
37610;BME280;23457;51.966;8.230;2023-05-23T01:22:48;100846.06;;;15.55;100.00
37610;BME280;23457;51.966;8.230;2023-05-23T01:28:04;100848.69;;;15.39;100.00
37610;BME280;23457;51.966;8.230;2023-05-23T01:30:34;100849.56;;;15.41;100.00
37610;BME280;23457;51.966;8.230;2023-05-23T01:33:05;100861.78;;;15.30;100.00
37610;BME280;23457;51.966;8.230;2023-05-23T01:35:32;100855.69;;;15.25;100.00
37610;BME280;23457;51.966;8.230;2023-05-23T01:38:00;100861.78;;;15.23;100.00
37610;BME280;23457;51.966;8.230;2023-05-23T01:40:27;100866.16;;;15.13;100.00
37610;BME280;23457;51.966;8.230;2023-05-23T01:42:55;100867.91;;;15.19;100.00
37610;BME280;23457;51.966;8.230;2023-05-23T01:45:25;100867.03;;;15.03;100.00
37610;BME280;23457;51.966;8.230;2023-05-23T01:47:52;100864.38;;;14.83;100.00
37610;BME280;23457;51.966;8.230;2023-05-23T01:50:19;100860.91;;;14.75;100.00
37610;BME280;23457;51.966;8.230;2023-05-23T01:52:46;100870.53;;;15.00;100.00
37610;BME280;23457;51.966;8.230;2023-05-23T01:55:16;100872.28;;;15.04;100.00
37610;BME280;23457;51.966;8.230;2023-05-23T01:57:45;100872.25;;;14.95;100.00
37610;BME280;23457;51.966;8.230;2023-05-23T02:00:15;100864.41;;;14.88;100.00
37610;BME280;23457;51.966;8.230;2023-05-23T02:02:45;100872.28;;;15.04;100.00
37610;BME280;23457;51.966;8.230;2023-05-23T02:05:15;100868.78;;;14.92;100.00
37610;BME280;23457;51.966;8.230;2023-05-23T02:07:41;100875.75;;;14.87;100.00
37610;BME280;23457;51.966;8.230;2023-05-23T02:10:09;100873.13;;;14.91;100.00
37610;BME280;23457;51.966;8.230;2023-05-23T02:12:36;100878.38;;;14.90;100.00
37610;BME280;23457;51.966;8.230;2023-05-23T02:15:04;100881.84;;;14.78;100.00
37610;BME280;23457;51.966;8.230;2023-05-23T02:17:31;100882.69;;;14.73;100.00
37610;BME280;23457;51.966;8.230;2023-05-23T02:19:58;100874.88;;;14.82;100.00
37610;BME280;23457;51.966;8.230;2023-05-23T02:22:25;100883.59;;;15.10;100.00
37610;BME280;23457;51.966;8.230;2023-05-23T02:24:51;100876.63;;;14.92;100.00
37610;BME280;23457;51.966;8.230;2023-05-23T02:27:18;100869.63;;;14.85;100.00
37610;BME280;23457;51.966;8.230;2023-05-23T02:29:45;100876.59;;;14.74;100.00
37610;BME280;23457;51.966;8.230;2023-05-23T02:32:12;100874.00;;;14.80;100.00
37610;BME280;23457;51.966;8.230;2023-05-23T02:34:39;100876.59;;;14.83;100.00
37610;BME280;23457;51.966;8.230;2023-05-23T02:37:06;100874.00;;;14.80;100.00
37610;BME280;23457;51.966;8.230;2023-05-23T02:39:35;100888.78;;;14.72;100.00
37610;BME280;23457;51.966;8.230;2023-05-23T02:42:02;100887.09;;;15.01;100.00
37610;BME280;23457;51.966;8.230;2023-05-23T02:44:30;100900.16;;;14.80;100.00
37610;BME280;23457;51.966;8.230;2023-05-23T02:46:57;100888.84;;;15.02;100.00
37610;BME280;23457;51.966;8.230;2023-05-23T02:49:24;100895.81;;;15.09;100.00
37610;BME280;23457;51.966;8.230;2023-05-23T02:51:51;100895.81;;;15.09;100.00
37610;BME280;23457;51.966;8.230;2023-05-23T02:54:18;100892.34;;;15.16;100.00
37610;BME280;23457;51.966;8.230;2023-05-23T02:56:45;100888.84;;;14.90;100.00
37610;BME280;23457;51.966;8.230;2023-05-23T02:59:12;100884.47;;;14.89;100.00
37610;BME280;23457;51.966;8.230;2023-05-23T03:01:39;100895.81;;;15.01;100.00
37610;BME280;23457;51.966;8.230;2023-05-23T03:04:06;100893.22;;;15.06;100.00
37610;BME280;23457;51.966;8.230;2023-05-23T03:06:32;100888.84;;;15.05;100.00
37610;BME280;23457;51.966;8.230;2023-05-23T03:09:00;100891.47;;;15.07;100.00
37610;BME280;23457;51.966;8.230;2023-05-23T03:11:26;100883.63;;;15.14;100.00
37610;BME280;23457;51.966;8.230;2023-05-23T03:13:55;100881.88;;;15.18;100.00
37610;BME280;23457;51.966;8.230;2023-05-23T03:16:22;100883.63;;;15.19;100.00
37610;BME280;23457;51.966;8.230;2023-05-23T03:18:51;100882.75;;;15.20;100.00
37610;BME280;23457;51.966;8.230;2023-05-23T03:21:18;100883.63;;;15.14;100.00
37610;BME280;23457;51.966;8.230;2023-05-23T03:23:45;100884.50;;;15.15;100.00
37610;BME280;23457;51.966;8.230;2023-05-23T03:26:12;100887.09;;;15.16;100.00
37610;BME280;23457;51.966;8.230;2023-05-23T03:28:38;100886.25;;;14.94;100.00
37610;BME280;23457;51.966;8.230;2023-05-23T03:31:05;100891.47;;;15.03;100.00
37610;BME280;23457;51.966;8.230;2023-05-23T03:33:32;100893.19;;;15.09;100.00
37610;BME280;23457;51.966;8.230;2023-05-23T03:35:59;100890.56;;;14.97;100.00
37610;BME280;23457;51.966;8.230;2023-05-23T03:38:26;100895.81;;;15.27;100.00
37610;BME280;23457;51.966;8.230;2023-05-23T03:40:53;100896.69;;;15.14;100.00
37610;BME280;23457;51.966;8.230;2023-05-23T03:43:20;100892.31;;;14.89;100.00
37610;BME280;23457;51.966;8.230;2023-05-23T03:45:47;100891.44;;;15.10;100.00
37610;BME280;23457;51.966;8.230;2023-05-23T03:48:16;100890.59;;;15.00;100.00
37610;BME280;23457;51.966;8.230;2023-05-23T03:50:43;100891.47;;;15.02;100.00
37610;BME280;23457;51.966;8.230;2023-05-23T03:53:10;100887.97;;;15.11;100.00
37610;BME280;23457;51.966;8.230;2023-05-23T03:55:38;100894.06;;;14.96;100.00
37610;BME280;23457;51.966;8.230;2023-05-23T03:58:05;100899.28;;;14.81;100.00
37610;BME280;23457;51.966;8.230;2023-05-23T04:00:32;100902.78;;;14.78;100.00
37610;BME280;23457;51.966;8.230;2023-05-23T04:03:01;100894.94;;;14.99;100.00
37610;BME280;23457;51.966;8.230;2023-05-23T04:05:29;100900.19;;;14.93;100.00
37610;BME280;23457;51.966;8.230;2023-05-23T04:07:57;100903.66;;;14.91;100.00
37610;BME280;23457;51.966;8.230;2023-05-23T04:10:27;100905.41;;;15.12;100.00
37610;BME280;23457;51.966;8.230;2023-05-23T04:12:53;100909.72;;;14.73;100.00
37610;BME280;23457;51.966;8.230;2023-05-23T04:15:21;100908.00;;;14.69;100.00
37610;BME280;23457;51.966;8.230;2023-05-23T04:17:53;100907.09;;;14.70;100.00
37610;BME280;23457;51.966;8.230;2023-05-23T04:20:22;100908.88;;;14.74;100.00
37610;BME280;23457;51.966;8.230;2023-05-23T04:22:49;100911.53;;;14.94;100.00
37610;BME280;23457;51.966;8.230;2023-05-23T04:25:16;100906.22;;;14.63;100.00
37610;BME280;23457;51.966;8.230;2023-05-23T04:27:52;100901.88;;;14.72;100.00
37610;BME280;23457;51.966;8.230;2023-05-23T04:30:21;100909.75;;;14.78;100.00
37610;BME280;23457;51.966;8.230;2023-05-23T04:32:49;100910.63;;;14.78;100.00
37610;BME280;23457;51.966;8.230;2023-05-23T04:35:15;100913.22;;;14.74;100.00
37610;BME280;23457;51.966;8.230;2023-05-23T04:37:42;100912.34;;;14.64;100.00
37610;BME280;23457;51.966;8.230;2023-05-23T04:40:11;100920.16;;;14.61;100.00
37610;BME280;23457;51.966;8.230;2023-05-23T04:43:05;100918.47;;;14.80;100.00
37610;BME280;23457;51.966;8.230;2023-05-23T04:45:47;100924.56;;;14.66;100.00
37610;BME280;23457;51.966;8.230;2023-05-23T04:48:33;100923.69;;;14.72;100.00
37610;BME280;23457;51.966;8.230;2023-05-23T04:51:02;100924.53;;;14.63;100.00
37610;BME280;23457;51.966;8.230;2023-05-23T04:53:33;100930.66;;;14.75;100.00
37610;BME280;23457;51.966;8.230;2023-05-23T04:56:00;100929.78;;;14.71;100.00
37610;BME280;23457;51.966;8.230;2023-05-23T04:58:28;100932.44;;;14.79;100.00
37610;BME280;23457;51.966;8.230;2023-05-23T05:00:58;100935.97;;;14.94;100.00
37610;BME280;23457;51.966;8.230;2023-05-23T05:03:25;100940.28;;;14.82;100.00
37610;BME280;23457;51.966;8.230;2023-05-23T05:05:52;100942.00;;;14.72;100.00
37610;BME280;23457;51.966;8.230;2023-05-23T05:08:19;100943.75;;;14.76;100.00
37610;BME280;23457;51.966;8.230;2023-05-23T05:10:46;100943.78;;;14.81;100.00
37610;BME280;23457;51.966;8.230;2023-05-23T05:13:14;100953.31;;;14.66;100.00
37610;BME280;23457;51.966;8.230;2023-05-23T05:15:47;100953.31;;;14.73;100.00
37610;BME280;23457;51.966;8.230;2023-05-23T05:18:14;100955.16;;;15.05;100.00
37610;BME280;23457;51.966;8.230;2023-05-23T05:20:42;100951.66;;;15.11;100.00
37610;BME280;23457;51.966;8.230;2023-05-23T05:23:08;100958.66;;;15.03;100.00
37610;BME280;23457;51.966;8.230;2023-05-23T05:25:35;100952.47;;;14.77;100.00
37610;BME280;23457;51.966;8.230;2023-05-23T05:28:03;100949.88;;;14.83;100.00
37610;BME280;23457;51.966;8.230;2023-05-23T05:30:36;100956.84;;;14.78;100.00
37610;BME280;23457;51.966;8.230;2023-05-23T05:33:04;100957.69;;;14.75;100.00
37610;BME280;23457;51.966;8.230;2023-05-23T05:35:32;100968.19;;;14.80;100.00
37610;BME280;23457;51.966;8.230;2023-05-23T05:38:00;100966.41;;;14.68;100.00
37610;BME280;23457;51.966;8.230;2023-05-23T05:40:28;100969.88;;;14.64;100.00
37610;BME280;23457;51.966;8.230;2023-05-23T05:42:54;100971.53;;;14.41;100.00
37610;BME280;23457;51.966;8.230;2023-05-23T05:45:22;100975.09;;;14.61;100.00
37610;BME280;23457;51.966;8.230;2023-05-23T05:47:49;100976.81;;;14.53;100.00
37610;BME280;23457;51.966;8.230;2023-05-23T05:50:18;100976.81;;;14.51;100.00
37610;BME280;23457;51.966;8.230;2023-05-23T05:52:45;100981.13;;;14.40;100.00
37610;BME280;23457;51.966;8.230;2023-05-23T05:55:12;100976.84;;;14.56;100.00
37610;BME280;23457;51.966;8.230;2023-05-23T05:57:46;100988.88;;;14.34;100.00
37610;BME280;23457;51.966;8.230;2023-05-23T06:00:16;100981.19;;;14.61;100.00
37610;BME280;23457;51.966;8.230;2023-05-23T06:02:45;100994.31;;;14.69;100.00
37610;BME280;23457;51.966;8.230;2023-05-23T06:05:42;100979.44;;;14.60;100.00
37610;BME280;23457;51.966;8.230;2023-05-23T06:08:10;100983.84;;;14.66;100.00
37610;BME280;23457;51.966;8.230;2023-05-23T06:10:37;100995.22;;;14.79;100.00
37610;BME280;23457;51.966;8.230;2023-05-23T06:13:05;100994.97;;;14.33;100.00
37610;BME280;23457;51.966;8.230;2023-05-23T06:15:34;101007.31;;;14.49;100.00
37610;BME280;23457;51.966;8.230;2023-05-23T06:18:01;100996.88;;;14.57;100.00
37610;BME280;23457;51.966;8.230;2023-05-23T06:20:29;101009.91;;;14.49;100.00
37610;BME280;23457;51.966;8.230;2023-05-23T06:22:59;101004.69;;;14.48;100.00
37610;BME280;23457;51.966;8.230;2023-05-23T06:25:26;101013.97;;;14.02;100.00
37610;BME280;23457;51.966;8.230;2023-05-23T06:27:52;101013.09;;;13.99;100.00
37610;BME280;23457;51.966;8.230;2023-05-23T06:30:19;101015.75;;;14.09;100.00
37610;BME280;23457;51.966;8.230;2023-05-23T06:32:47;101009.66;;;14.10;100.00
37610;BME280;23457;51.966;8.230;2023-05-23T06:35:14;101018.59;;;14.41;100.00
37610;BME280;23457;51.966;8.230;2023-05-23T06:37:41;101024.56;;;14.23;100.00
37610;BME280;23457;51.966;8.230;2023-05-23T06:40:13;101022.75;;;14.13;100.00
37610;BME280;23457;51.966;8.230;2023-05-23T06:42:40;101028.81;;;14.06;100.00
37610;BME280;23457;51.966;8.230;2023-05-23T06:45:16;101035.78;;;14.04;100.00
37610;BME280;23457;51.966;8.230;2023-05-23T06:47:43;101033.06;;;13.91;100.00
37610;BME280;23457;51.966;8.230;2023-05-23T06:50:12;101034.81;;;13.95;100.00
37610;BME280;23457;51.966;8.230;2023-05-23T06:52:40;101050.38;;;13.77;100.00
37610;BME280;23457;51.966;8.230;2023-05-23T06:55:08;101053.72;;;13.61;100.00
37610;BME280;23457;51.966;8.230;2023-05-23T06:57:45;101046.81;;;13.69;100.00
37610;BME280;23457;51.966;8.230;2023-05-23T07:00:13;101059.81;;;13.61;100.00
37610;BME280;23457;51.966;8.230;2023-05-23T07:02:56;101051.25;;;13.78;100.00
37610;BME280;23457;51.966;8.230;2023-05-23T07:05:27;101057.34;;;13.81;100.00
37610;BME280;23457;51.966;8.230;2023-05-23T07:07:55;101067.69;;;13.69;100.00
37610;BME280;23457;51.966;8.230;2023-05-23T07:10:21;101068.56;;;13.68;100.00
37610;BME280;23457;51.966;8.230;2023-05-23T07:12:51;101070.28;;;13.65;100.00
37610;BME280;23457;51.966;8.230;2023-05-23T07:15:20;101073.00;;;13.75;100.00
37610;BME280;23457;51.966;8.230;2023-05-23T07:17:54;101075.41;;;13.55;100.00
37610;BME280;23457;51.966;8.230;2023-05-23T07:20:21;101069.75;;;14.04;100.00
37610;BME280;23457;51.966;8.230;2023-05-23T07:22:52;101080.81;;;13.75;100.00
37610;BME280;23457;51.966;8.230;2023-05-23T07:25:18;101078.03;;;13.54;100.00
37610;BME280;23457;51.966;8.230;2023-05-23T07:27:45;101081.69;;;13.74;100.00
37610;BME280;23457;51.966;8.230;2023-05-23T07:30:13;101081.88;;;13.92;100.00
37610;BME280;23457;51.966;8.230;2023-05-23T07:32:43;101071.13;;;13.60;100.00
37610;BME280;23457;51.966;8.230;2023-05-23T07:35:13;101094.63;;;13.62;100.00
37610;BME280;23457;51.966;8.230;2023-05-23T07:37:40;101091.19;;;13.65;100.00
37610;BME280;23457;51.966;8.230;2023-05-23T07:40:07;101102.41;;;13.56;100.00
37610;BME280;23457;51.966;8.230;2023-05-23T07:42:40;101102.53;;;13.67;100.00
37610;BME280;23457;51.966;8.230;2023-05-23T07:45:07;101103.47;;;13.76;100.00
37610;BME280;23457;51.966;8.230;2023-05-23T07:47:36;101104.41;;;13.83;100.00
37610;BME280;23457;51.966;8.230;2023-05-23T07:50:03;101104.44;;;13.87;100.00
37610;BME280;23457;51.966;8.230;2023-05-23T07:52:30;101113.19;;;13.89;100.00
37610;BME280;23457;51.966;8.230;2023-05-23T07:54:58;101125.19;;;13.71;100.00
37610;BME280;23457;51.966;8.230;2023-05-23T07:57:26;101126.88;;;13.64;100.00
37610;BME280;23457;51.966;8.230;2023-05-23T07:59:53;101127.06;;;13.85;100.00
37610;BME280;23457;51.966;8.230;2023-05-23T08:02:20;101126.34;;;14.02;100.00
37610;BME280;23457;51.966;8.230;2023-05-23T08:04:47;101134.97;;;13.90;100.00
37610;BME280;23457;51.966;8.230;2023-05-23T08:07:14;101132.13;;;13.67;100.00
37610;BME280;23457;51.966;8.230;2023-05-23T08:09:54;101137.25;;;13.59;100.00
37610;BME280;23457;51.966;8.230;2023-05-23T08:12:21;101136.44;;;13.62;100.00
37610;BME280;23457;51.966;8.230;2023-05-23T08:15:04;101149.41;;;13.56;100.00
37610;BME280;23457;51.966;8.230;2023-05-23T08:17:38;101149.53;;;13.68;100.00
37610;BME280;23457;51.966;8.230;2023-05-23T08:20:06;101148.78;;;13.77;100.00
37610;BME280;23457;51.966;8.230;2023-05-23T08:22:37;101153.06;;;13.73;100.00
37610;BME280;23457;51.966;8.230;2023-05-23T08:25:05;101154.00;;;13.81;100.00
37610;BME280;23457;51.966;8.230;2023-05-23T08:27:34;101157.63;;;13.92;100.00
37610;BME280;23457;51.966;8.230;2023-05-23T08:30:10;101153.44;;;14.13;100.00
37610;BME280;23457;51.966;8.230;2023-05-23T08:32:37;101165.47;;;13.92;100.00
37610;BME280;23457;51.966;8.230;2023-05-23T08:35:04;101167.06;;;13.81;100.00
37610;BME280;23457;51.966;8.230;2023-05-23T08:37:31;101166.97;;;13.69;100.00
37610;BME280;23457;51.966;8.230;2023-05-23T08:39:58;101174.88;;;13.75;100.00
37610;BME280;23457;51.966;8.230;2023-05-23T08:42:39;101172.22;;;13.72;100.00
37610;BME280;23457;51.966;8.230;2023-05-23T08:45:08;101171.41;;;13.76;100.00
37610;BME280;23457;51.966;8.230;2023-05-23T08:47:36;101180.03;;;13.71;100.00
37610;BME280;23457;51.966;8.230;2023-05-23T08:50:07;101183.19;;;13.39;100.00
37610;BME280;23457;51.966;8.230;2023-05-23T08:55:19;101187.56;;;13.45;100.00
37610;BME280;23457;51.966;8.230;2023-05-23T08:57:45;101193.91;;;13.63;100.00
37610;BME280;23457;51.966;8.230;2023-05-23T09:00:26;101190.28;;;13.52;100.00
37610;BME280;23457;51.966;8.230;2023-05-23T09:02:54;101195.50;;;13.51;100.00
37610;BME280;23457;51.966;8.230;2023-05-23T09:05:41;101199.78;;;13.46;100.00
37610;BME280;23457;51.966;8.230;2023-05-23T09:08:08;101200.78;;;13.57;100.00
37610;BME280;23457;51.966;8.230;2023-05-23T09:10:35;101210.75;;;13.19;100.00
37610;BME280;23457;51.966;8.230;2023-05-23T09:13:04;101210.06;;;13.34;100.00
37610;BME280;23457;51.966;8.230;2023-05-23T09:15:31;101218.75;;;13.33;100.00
37610;BME280;23457;51.966;8.230;2023-05-23T09:17:59;101228.31;;;13.32;100.00
37610;BME280;23457;51.966;8.230;2023-05-23T09:20:31;101217.00;;;13.29;100.00
37610;BME280;23457;51.966;8.230;2023-05-23T09:23:04;101222.22;;;13.29;100.00
37610;BME280;23457;51.966;8.230;2023-05-23T09:25:31;101230.03;;;13.29;100.00
37610;BME280;23457;51.966;8.230;2023-05-23T09:27:58;101239.84;;;12.86;100.00
37610;BME280;23457;51.966;8.230;2023-05-23T09:30:27;101232.47;;;13.18;100.00
37610;BME280;23457;51.966;8.230;2023-05-23T09:32:58;101232.56;;;13.22;100.00
37610;BME280;23457;51.966;8.230;2023-05-23T09:35:32;101237.78;;;13.22;100.00
37610;BME280;23457;51.966;8.230;2023-05-23T09:37:58;101246.56;;;13.27;100.00
37610;BME280;23457;51.966;8.230;2023-05-23T09:40:30;101256.84;;;13.18;100.00
37610;BME280;23457;51.966;8.230;2023-05-23T09:43:03;101260.09;;;13.05;100.00
37610;BME280;23457;51.966;8.230;2023-05-23T09:45:31;101264.72;;;13.21;100.00
37610;BME280;23457;51.966;8.230;2023-05-23T09:47:59;101262.09;;;13.20;100.00
37610;BME280;23457;51.966;8.230;2023-05-23T09:50:32;101256.63;;;13.05;100.00
37610;BME280;23457;51.966;8.230;2023-05-23T09:53:00;101269.91;;;13.18;100.00
37610;BME280;23457;51.966;8.230;2023-05-23T09:55:27;101266.88;;;12.91;100.00
37610;BME280;23457;51.966;8.230;2023-05-23T09:57:54;101272.88;;;12.85;100.00
37610;BME280;23457;51.966;8.230;2023-05-23T10:00:23;101271.84;;;12.76;100.00
37610;BME280;23457;51.966;8.230;2023-05-23T10:03:00;101273.59;;;12.77;100.00
37610;BME280;23457;51.966;8.230;2023-05-23T10:05:49;101285.88;;;12.84;100.00
37610;BME280;23457;51.966;8.230;2023-05-23T10:13:46;101298.53;;;12.60;100.00
37610;BME280;23457;51.966;8.230;2023-05-23T10:19:11;101299.53;;;12.66;100.00
37610;BME280;23457;51.966;8.230;2023-05-23T10:21:43;101297.88;;;12.73;100.00
37610;BME280;23457;51.966;8.230;2023-05-23T10:24:15;101291.03;;;12.81;100.00
37610;BME280;23457;51.966;8.230;2023-05-23T10:26:43;101291.56;;;13.13;100.00
37610;BME280;23457;51.966;8.230;2023-05-23T10:29:10;101307.59;;;12.83;100.00
37610;BME280;23457;51.966;8.230;2023-05-23T10:31:37;101306.69;;;12.81;100.00
37610;BME280;23457;51.966;8.230;2023-05-23T10:36:58;101306.31;;;13.11;100.00
37610;BME280;23457;51.966;8.230;2023-05-23T10:42:30;101312.75;;;13.33;100.00
37610;BME280;23457;51.966;8.230;2023-05-23T10:45:19;101297.06;;;13.33;100.00
37610;BME280;23457;51.966;8.230;2023-05-23T10:47:47;101308.00;;;13.69;100.00
37610;BME280;23457;51.966;8.230;2023-05-23T10:50:37;101299.50;;;13.85;100.00
37610;BME280;23457;51.966;8.230;2023-05-23T10:53:05;101301.75;;;14.32;100.00
37610;BME280;23457;51.966;8.230;2023-05-23T10:55:36;101301.81;;;14.37;100.00
37610;BME280;23457;51.966;8.230;2023-05-23T10:58:16;101306.28;;;14.42;100.00
37610;BME280;23457;51.966;8.230;2023-05-23T11:01:11;101311.63;;;14.57;100.00
37610;BME280;23457;51.966;8.230;2023-05-23T11:06:40;101321.09;;;14.46;98.82
37610;BME280;23457;51.966;8.230;2023-05-23T11:09:12;101318.47;;;14.42;98.73
37610;BME280;23457;51.966;8.230;2023-05-23T11:11:51;101324.78;;;14.65;94.96
37610;BME280;23457;51.966;8.230;2023-05-23T11:14:19;101321.66;;;15.10;96.79
37610;BME280;23457;51.966;8.230;2023-05-23T11:16:46;101327.50;;;14.76;92.30
37610;BME280;23457;51.966;8.230;2023-05-23T11:21:48;101321.25;;;14.61;90.96
37610;BME280;23457;51.966;8.230;2023-05-23T11:24:15;101341.88;;;14.31;92.01
37610;BME280;23457;51.966;8.230;2023-05-23T11:26:57;101337.53;;;14.36;93.41
37610;BME280;23457;51.966;8.230;2023-05-23T11:29:27;101336.56;;;14.26;92.55
37610;BME280;23457;51.966;8.230;2023-05-23T11:31:54;101337.44;;;14.25;93.48
37610;BME280;23457;51.966;8.230;2023-05-23T11:34:24;101334.19;;;14.43;92.07
37610;BME280;23457;51.966;8.230;2023-05-23T11:36:53;101331.41;;;14.34;89.65
37610;BME280;23457;51.966;8.230;2023-05-23T11:39:20;101339.22;;;14.28;91.31
37610;BME280;23457;51.966;8.230;2023-05-23T11:42:00;101339.44;;;14.49;91.62
37610;BME280;23457;51.966;8.230;2023-05-23T11:44:27;101349.69;;;14.31;91.76
37610;BME280;23457;51.966;8.230;2023-05-23T11:47:00;101345.19;;;14.16;90.27
37610;BME280;23457;51.966;8.230;2023-05-23T11:49:32;101334.28;;;14.55;89.65
37610;BME280;23457;51.966;8.230;2023-05-23T11:52:01;101348.13;;;14.47;88.12
37610;BME280;23457;51.966;8.230;2023-05-23T11:54:28;101343.16;;;14.74;87.18
37610;BME280;23457;51.966;8.230;2023-05-23T11:56:56;101350.06;;;14.64;88.85
37610;BME280;23457;51.966;8.230;2023-05-23T11:59:24;101354.41;;;14.62;90.04
37610;BME280;23457;51.966;8.230;2023-05-23T12:01:51;101353.72;;;14.83;88.97
37610;BME280;23457;51.966;8.230;2023-05-23T12:04:18;101359.94;;;14.94;90.95
37610;BME280;23457;51.966;8.230;2023-05-23T12:06:46;101345.19;;;15.10;87.60
37610;BME280;23457;51.966;8.230;2023-05-23T12:09:14;101358.25;;;15.04;87.29
37610;BME280;23457;51.966;8.230;2023-05-23T12:11:41;101362.03;;;15.41;89.42
37610;BME280;23457;51.966;8.230;2023-05-23T12:14:13;101355.06;;;15.46;86.49
37610;BME280;23457;51.966;8.230;2023-05-23T12:16:43;101357.97;;;15.93;83.87
37610;BME280;23457;51.966;8.230;2023-05-23T12:19:11;101353.41;;;15.56;85.29
37610;BME280;23457;51.966;8.230;2023-05-23T12:21:40;101351.59;;;15.52;85.79
37610;BME280;23457;51.966;8.230;2023-05-23T12:24:14;101352.53;;;15.60;80.44
37610;BME280;23457;51.966;8.230;2023-05-23T12:26:57;101359.81;;;16.23;80.90
37610;BME280;23457;51.966;8.230;2023-05-23T12:29:32;101368.50;;;16.04;76.10
37610;BME280;23457;51.966;8.230;2023-05-23T12:32:02;101355.50;;;16.46;77.32
37610;BME280;23457;51.966;8.230;2023-05-23T12:34:29;101353.59;;;15.92;72.05
37610;BME280;23457;51.966;8.230;2023-05-23T12:36:57;101358.84;;;15.95;73.15
37610;BME280;23457;51.966;8.230;2023-05-23T12:39:43;101356.25;;;16.01;75.22
37610;BME280;23457;51.966;8.230;2023-05-23T12:42:10;101354.53;;;16.05;77.61
37610;BME280;23457;51.966;8.230;2023-05-23T12:44:40;101358.72;;;15.68;74.65
37610;BME280;23457;51.966;8.230;2023-05-23T12:47:07;101355.22;;;15.67;73.70
37610;BME280;23457;51.966;8.230;2023-05-23T12:49:34;101344.91;;;16.11;80.17
37610;BME280;23457;51.966;8.230;2023-05-23T12:52:01;101351.94;;;16.22;72.43
37610;BME280;23457;51.966;8.230;2023-05-23T12:54:27;101357.28;;;16.61;73.13
37610;BME280;23457;51.966;8.230;2023-05-23T12:56:54;101353.84;;;16.83;71.52
37610;BME280;23457;51.966;8.230;2023-05-23T12:59:21;101362.53;;;16.58;67.31
37610;BME280;23457;51.966;8.230;2023-05-23T13:01:47;101361.69;;;16.64;65.23
37610;BME280;23457;51.966;8.230;2023-05-23T13:04:14;101362.59;;;16.76;72.00
37610;BME280;23457;51.966;8.230;2023-05-23T13:06:41;101361.69;;;16.74;69.85
37610;BME280;23457;51.966;8.230;2023-05-23T13:09:08;101370.34;;;16.29;71.16
37610;BME280;23457;51.966;8.230;2023-05-23T13:11:35;101374.56;;;15.98;73.94
37610;BME280;23457;51.966;8.230;2023-05-23T13:14:01;101369.44;;;16.26;72.19
37610;BME280;23457;51.966;8.230;2023-05-23T13:16:29;101363.16;;;15.80;71.77
37610;BME280;23457;51.966;8.230;2023-05-23T13:18:55;101365.91;;;16.16;70.26
37610;BME280;23457;51.966;8.230;2023-05-23T13:21:22;101376.59;;;16.69;67.53